Impacts TAF Board INFO
FOR SITUATIONAL AWARENESS. NOT TO BE USED FOR FLIGHT PLANNING PURPOSES.
IDs:

KMEM - Memphis Intl, TN, US

Issued at 1120 UTC 19 Nov 2017
Updated at 1417 UTC 19 Nov 2017
Potential Impact None Slight Moderate High
Time1354Z 19/15Z 19/16Z 19/17Z 19/18Z 19/19Z 19/20Z 19/21Z 19/22Z 19/23Z 20/00Z 20/01Z 20/02Z 20/03Z>>
Type OBS PRVL PRVL PRVL PRVL PRVL PRVL PRVL PRVL PRVL PRVL PRVL PRVL PRVL
VIS 10 >6 >6 >6 >6 >6 >6 >6 >6 >6 >6 >6 >6 >6
CIG -- -- -- -- -- -- -- -- -- -- -- -- -- --
Cover CLR SKC SKC SKC SKC SKC SKC SKC SKC SKC SKC SKC SKC SKC
FltCat VFR VFR VFR VFR VFR VFR VFR VFR VFR VFR VFR VFR VFR VFR
WX -- -- -- -- -- -- -- -- -- -- -- -- -- --
WDir 320 330 330 330 330 330 330 330 330 330 VRB VRB VRB VRB
WSpd 8 11 11 11 11 11 11 11 8 8 2 2 2 2
WGst -- 17 17 17 17 17 17 17 -- -- -- -- -- --

Raw TAF
KMEM 191120Z 1912/2018 32007KT P6SM SKC
  FM191400 33011G17KT P6SM SKC
  FM192200 33008KT P6SM SKC
  FM200000 VRB02KT P6SM SKC


Raw METAR
KMEM 191354Z 32008KT 10SM CLR 06/01 A3022 RMK AO2 SLP232 T00560006
KMEM 191254Z 31006KT 10SM CLR 04/00 A3020 RMK AO2 SLP226 T00390000
KMEM 191154Z 31005KT 10SM CLR 04/00 A3017 RMK AO2 SLP217 70030 T00390000 10067 20039 53012

METAR Board
Radar Display
Forecast Discussion

FOR SITUATIONAL AWARENESS. NOT TO BE USED FOR FLIGHT PLANNING PURPOSES.